Time;durP1;ratioP1;P1;durP2;ratioP2;P2;SDS_P1;SDS_P2;PMS_P1;PMS_P2;Temp;Humidity;BMP_temperature;BMP_pressure;BME280_temperature;BME280_humidity;BME280_pressure;Samples;Min_cycle;Max_cycle;Signal;HPM_P1;HPM_P2
2022/02/02 00:00:19;;;;;;;0.77;0.50;;;;;;;4.92;100.00;95950.84;5037908;28;20205;-69
2022/02/02 00:02:49;;;;;;;1.10;0.77;;;;;;;4.80;100.00;95974.72;5036750;28;20216;-70
2022/02/02 00:05:22;;;;;;;0.97;0.67;;;;;;;5.03;100.00;95963.69;5040827;28;20240;-70
2022/02/02 00:07:54;;;;;;;1.00;0.97;;;;;;;4.85;100.00;95984.56;5045794;28;20340;-70
2022/02/02 00:10:48;;;;;;;0.97;0.87;;;;;;;5.05;100.00;95990.47;5045462;28;20220;-70
2022/02/02 00:13:29;;;;;;;0.67;0.60;;;;;;;5.02;100.00;95972.50;5044639;28;20350;-70
2022/02/02 00:16:04;;;;;;;1.00;0.80;;;;;;;4.89;100.00;95977.28;5045401;28;20220;-70
2022/02/02 00:18:46;;;;;;;1.80;0.97;;;;;;;5.11;100.00;95972.41;5044673;28;20232;-70
2022/02/02 00:21:19;;;;;;;0.60;0.60;;;;;;;4.89;100.00;95965.03;5045366;28;20247;-70
2022/02/02 00:23:49;;;;;;;1.47;0.90;;;;;;;4.92;100.00;95964.72;5043700;28;20216;-70
2022/02/02 00:26:22;;;;;;;1.47;1.10;;;;;;;5.03;100.00;95956.66;5045379;28;20251;-70
2022/02/02 00:28:53;;;;;;;0.60;0.60;;;;;;;5.00;100.00;95972.66;5044489;28;21034;-70
2022/02/02 00:31:25;;;;;;;0.50;0.50;;;;;;;4.89;100.00;95957.19;5044293;28;20209;-70
2022/02/02 00:33:57;;;;;;;0.50;0.50;;;;;;;4.92;100.00;95964.72;5045325;28;20197;-70
2022/02/02 00:36:27;;;;;;;0.50;0.50;;;;;;;4.89;100.00;95966.81;5044561;28;20279;-70
2022/02/02 00:38:53;;;;;;;1.10;0.80;;;;;;;5.12;100.00;95971.44;5044765;28;20225;-70
2022/02/02 00:41:21;;;;;;;1.03;0.87;;;;;;;5.28;100.00;95966.31;5045817;28;20236;-70
2022/02/02 00:43:54;;;;;;;0.30;0.30;;;;;;;4.97;100.00;95965.09;5044757;28;20209;-70
2022/02/02 00:46:24;;;;;;;0.60;0.60;;;;;;;5.00;100.00;95958.75;5045512;28;20205;-70
2022/02/02 00:48:57;;;;;;;0.77;0.77;;;;;;;5.09;100.00;95958.69;5043785;28;20235;-70
2022/02/02 00:51:25;;;;;;;1.17;0.70;;;;;;;5.09;100.00;95965.69;5045853;28;20596;-70
2022/02/02 00:53:52;;;;;;;3.07;0.97;;;;;;;4.97;100.00;95962.47;5044031;28;20288;-70
2022/02/02 00:56:18;;;;;;;1.77;1.13;;;;;;;4.90;100.00;95953.63;5043849;28;20846;-70
2022/02/02 00:58:46;;;;;;;0.63;0.57;;;;;;;4.86;100.00;95946.22;5043208;28;20228;-70
2022/02/02 01:01:12;;;;;;;0.53;0.43;;;;;;;4.79;100.00;95939.97;5043210;28;20205;-70
2022/02/02 01:03:39;;;;;;;1.23;1.07;;;;;;;4.79;100.00;95941.78;5044550;28;20204;-70
2022/02/02 01:06:08;;;;;;;1.37;0.57;;;;;;;4.73;100.00;95951.00;5044435;28;20198;-70
2022/02/02 01:08:52;;;;;;;0.40;0.40;;;;;;;4.78;100.00;95951.38;5044401;28;20278;-70
2022/02/02 01:11:43;;;;;;;0.80;0.80;;;;;;;4.75;100.00;95956.06;5045089;28;20215;-70
2022/02/02 01:17:33;;;;;;;1.10;0.90;;;;;;;4.80;100.00;95944.22;5045114;28;20235;-70
2022/02/02 01:20:04;;;;;;;1.13;1.00;;;;;;;4.82;100.00;95956.16;5044409;28;20213;-69
2022/02/02 01:27:59;;;;;;;0.80;0.80;;;;;;;5.02;100.00;95934.13;5044327;28;20305;-70
2022/02/02 01:30:27;;;;;;;2.13;1.70;;;;;;;5.24;100.00;95931.03;5044853;28;20216;-70
2022/02/02 01:32:53;;;;;;;1.03;0.63;;;;;;;4.88;100.00;95929.44;5045291;28;20657;-70
2022/02/02 01:35:20;;;;;;;1.10;0.67;;;;;;;5.07;100.00;95934.50;5044426;28;20212;-70
2022/02/02 01:37:48;;;;;;;0.60;0.60;;;;;;;5.10;100.00;95934.19;5045423;28;20264;-70
2022/02/02 01:40:22;;;;;;;0.40;0.40;;;;;;;5.09;100.00;95929.13;5045000;28;20270;-70
2022/02/02 01:42:55;;;;;;;1.00;0.73;;;;;;;5.15;100.00;95936.38;5043356;28;20205;-70
2022/02/02 01:45:26;;;;;;;0.73;0.70;;;;;;;5.16;100.00;95932.78;5045310;28;20209;-70
2022/02/02 01:48:06;;;;;;;0.77;0.77;;;;;;;5.17;100.00;95939.66;5044333;28;20228;-70
2022/02/02 01:50:45;;;;;;;2.13;0.97;;;;;;;5.18;100.00;95949.09;5046777;28;20568;-70
2022/02/02 01:53:20;;;;;;;3.17;1.50;;;;;;;5.15;100.00;95945.00;5045417;28;20209;-70
2022/02/02 01:55:47;;;;;;;0.60;0.60;;;;;;;5.11;100.00;95954.13;5045708;28;20208;-70
2022/02/02 02:00:55;;;;;;;2.47;1.23;;;;;;;5.21;100.00;95956.66;5041560;28;20658;-70
2022/02/02 02:03:23;;;;;;;1.70;1.30;;;;;;;5.40;100.00;95954.69;5049692;28;20213;-70
2022/02/02 02:05:50;;;;;;;1.00;0.90;;;;;;;5.23;100.00;95963.38;5051009;28;20209;-70
2022/02/02 02:08:17;;;;;;;2.07;1.47;;;;;;;5.25;100.00;95964.03;5051161;28;20228;-70
2022/02/02 02:10:43;;;;;;;0.80;0.60;;;;;;;5.46;100.00;95962.72;5049579;28;20233;-70
2022/02/02 02:13:14;;;;;;;0.93;0.83;;;;;;;5.39;100.00;95962.69;5048947;28;20204;-70
2022/02/02 02:15:42;;;;;;;0.77;0.70;;;;;;;5.26;100.00;95978.72;5048017;28;20267;-70
2022/02/02 02:18:09;;;;;;;1.57;1.30;;;;;;;5.54;100.00;95995.94;5046364;28;20240;-70
2022/02/02 02:20:37;;;;;;;0.67;0.67;;;;;;;5.81;100.00;96001.88;5047191;28;20217;-70
2022/02/02 02:23:05;;;;;;;1.37;1.23;;;;;;;5.85;100.00;95991.94;5044981;28;20211;-70
2022/02/02 02:25:33;;;;;;;0.63;0.60;;;;;;;5.74;100.00;96002.59;5043318;28;20213;-70
2022/02/02 02:28:09;;;;;;;0.87;0.77;;;;;;;5.19;100.00;96019.47;5043190;28;20220;-70
2022/02/02 02:30:46;;;;;;;0.87;0.77;;;;;;;5.41;100.00;96023.41;5043011;28;20782;-70
2022/02/02 02:33:35;;;;;;;1.50;0.93;;;;;;;5.48;100.00;96022.66;5042506;28;20208;-70
2022/02/02 02:38:57;;;;;;;0.93;0.93;;;;;;;5.73;100.00;95995.75;5042082;28;20717;-70
2022/02/02 02:57:58;;;;;;;0.30;0.30;;;;;;;5.64;100.00;95973.16;5045103;28;20314;-70
2022/02/02 03:00:35;;;;;;;1.43;1.23;;;;;;;5.66;100.00;95972.00;5047392;28;20205;-70
2022/02/02 03:14:49;;;;;;;0.20;0.20;;;;;;;5.70;100.00;95980.34;5043141;28;20247;-70
2022/02/02 03:30:47;;;;;;;0.30;0.30;;;;;;;5.54;100.00;95959.34;5023952;28;20243;-70
2022/02/02 03:49:55;;;;;;;0.30;0.30;;;;;;;5.65;100.00;95954.69;5043438;28;20273;-70
2022/02/02 03:55:25;;;;;;;1.07;0.60;;;;;;;5.68;100.00;95948.34;5007308;28;20251;-70
2022/02/02 03:58:08;;;;;;;0.93;0.60;;;;;;;5.69;100.00;95957.78;5043668;28;20237;-70
2022/02/02 04:00:42;;;;;;;1.50;0.80;;;;;;;5.63;100.00;95961.03;5042614;28;20223;-70
2022/02/02 04:03:33;;;;;;;0.40;0.40;;;;;;;5.63;100.00;95974.13;5044770;28;20219;-70
2022/02/02 04:06:06;;;;;;;0.30;0.30;;;;;;;5.72;100.00;95965.34;5044094;28;20205;-70
2022/02/02 04:08:35;;;;;;;1.27;0.90;;;;;;;5.70;100.00;95972.50;5042882;28;20236;-70
2022/02/02 04:11:09;;;;;;;43.50;12.13;;;;;;;5.76;100.00;95959.69;5044542;28;20221;-70
2022/02/02 04:14:23;;;;;;;19.83;6.77;;;;;;;5.69;100.00;95966.47;5043640;28;20212;-70
2022/02/02 04:38:59;;;;;;;0.60;0.60;;;;;;;5.85;100.00;95990.13;5041552;28;20232;-70
2022/02/02 04:53:06;;;;;;;0.67;0.47;;;;;;;5.73;100.00;95995.75;5041418;28;20751;-70
2022/02/02 04:55:34;;;;;;;13.33;4.00;;;;;;;5.67;100.00;95988.50;5037940;28;20201;-70
2022/02/02 04:58:14;;;;;;;13.43;3.23;;;;;;;5.68;100.00;95984.94;5036466;28;20233;-70
2022/02/02 05:01:43;;;;;;;3.43;1.20;;;;;;;5.70;100.00;95988.19;5036462;28;20201;-70
2022/02/02 05:06:41;;;;;;;0.90;0.77;;;;;;;6.09;100.00;95969.34;5022965;28;20208;-70
2022/02/02 05:09:22;;;;;;;3.40;0.87;;;;;;;6.03;100.00;95966.53;5032734;28;20596;-70
2022/02/02 05:17:20;;;;;;;0.93;0.80;;;;;;;6.22;99.35;95944.41;5036160;28;20208;-70
2022/02/02 05:20:20;;;;;;;0.50;0.50;;;;;;;6.35;97.84;95954.41;5036690;28;20243;-70
2022/02/02 05:45:11;;;;;;;3.27;1.10;;;;;;;6.74;92.46;95992.97;5022619;28;20197;-70
2022/02/02 05:50:39;;;;;;;4.27;0.77;;;;;;;6.81;89.49;96018.38;5040182;28;20946;-70
2022/02/02 05:53:06;;;;;;;0.90;0.63;;;;;;;6.77;89.66;96031.91;5040331;28;20197;-70
2022/02/02 05:55:38;;;;;;;3.13;0.80;;;;;;;6.91;89.25;96032.16;5040960;28;20586;-70
2022/02/02 05:58:07;;;;;;;3.73;1.07;;;;;;;6.86;88.32;96033.59;5041191;28;20604;-70
2022/02/02 06:00:36;;;;;;;18.53;2.03;;;;;;;6.74;87.96;96032.25;5042284;28;20212;-70
2022/02/02 06:03:09;;;;;;;1.10;0.87;;;;;;;6.98;88.03;96043.63;5039487;28;20208;-70
2022/02/02 06:05:37;;;;;;;3.53;2.70;;;;;;;6.75;88.29;96042.56;5040009;28;20205;-70
2022/02/02 06:08:08;;;;;;;4.03;1.07;;;;;;;6.89;88.05;96054.25;5039816;28;20665;-70
2022/02/02 06:10:37;;;;;;;2.37;0.73;;;;;;;7.04;87.45;96053.47;5036362;28;20220;-70
2022/02/02 06:13:04;;;;;;;6.03;1.10;;;;;;;7.00;87.97;96067.03;5039035;28;20205;-70
2022/02/02 06:15:30;;;;;;;4.60;1.17;;;;;;;6.87;87.90;96040.47;5040220;28;20205;-70
2022/02/02 06:18:00;;;;;;;0.63;0.63;;;;;;;6.99;88.22;96034.78;5039197;28;21180;-70
2022/02/02 06:20:27;;;;;;;0.60;0.60;;;;;;;6.97;87.57;96028.06;5038901;28;20223;-70
2022/02/02 06:23:01;;;;;;;0.70;0.70;;;;;;;7.19;87.01;96035.31;5039638;28;20205;-70
2022/02/02 06:25:32;;;;;;;3.73;0.70;;;;;;;7.07;87.73;96019.06;5039609;28;20200;-70
2022/02/02 06:28:01;;;;;;;3.13;1.00;;;;;;;7.14;87.13;96037.59;5039036;28;20225;-70
2022/02/02 06:30:30;;;;;;;3.60;2.77;;;;;;;7.14;87.46;96048.06;5039037;28;20232;-70
2022/02/02 06:33:04;;;;;;;0.90;0.80;;;;;;;7.29;87.49;96057.75;5039122;28;20569;-70
2022/02/02 06:35:31;;;;;;;3.00;1.57;;;;;;;7.10;87.52;96052.00;5039081;28;20242;-70
2022/02/02 06:37:58;;;;;;;1.87;1.47;;;;;;;7.05;88.38;96055.13;5038690;28;20792;-70
2022/02/02 06:40:25;;;;;;;2.77;1.03;;;;;;;6.92;88.31;96030.34;5039802;28;20205;-71
2022/02/02 06:42:52;;;;;;;9.57;3.23;;;;;;;7.07;88.36;96050.50;5038903;28;20212;-71
2022/02/02 06:45:20;;;;;;;5.73;1.33;;;;;;;7.05;88.70;96043.78;5039251;28;20207;-70
2022/02/02 06:47:49;;;;;;;6.90;2.30;;;;;;;7.16;87.20;96057.41;5038713;28;20229;-70
2022/02/02 06:50:21;;;;;;;4.13;0.90;;;;;;;7.13;87.08;96081.31;5038796;28;20296;-70
2022/02/02 06:52:58;;;;;;;2.23;0.50;;;;;;;7.20;86.20;96079.69;5038425;28;20267;-71
2022/02/02 06:55:34;;;;;;;1.53;1.43;;;;;;;7.13;86.14;96090.97;5039624;28;20205;-71
2022/02/02 06:58:10;;;;;;;7.10;1.50;;;;;;;7.24;86.40;96080.19;5038680;28;20239;-70
2022/02/02 07:00:53;;;;;;;1.27;1.13;;;;;;;7.31;85.44;96080.22;5039544;28;20212;-70
2022/02/02 07:03:31;;;;;;;3.10;1.10;;;;;;;7.23;85.49;96089.03;5042469;28;20209;-70
2022/02/02 07:06:14;;;;;;;3.47;0.97;;;;;;;7.33;85.03;96095.78;5041528;28;20237;-70
2022/02/02 07:08:57;;;;;;;1.07;0.60;;;;;;;7.39;84.44;96101.19;5038174;28;21097;-70
2022/02/02 07:11:33;;;;;;;1.63;1.00;;;;;;;7.36;84.04;96109.38;5040598;28;20209;-70
2022/02/02 07:14:12;;;;;;;3.00;0.73;;;;;;;7.30;83.42;96112.63;5038768;28;20274;-70
2022/02/02 07:16:53;;;;;;;4.10;0.97;;;;;;;7.30;84.17;96138.84;5039144;28;20215;-70
2022/02/02 07:19:34;;;;;;;1.47;0.77;;;;;;;7.30;84.24;96144.09;5038266;28;20640;-70
2022/02/02 07:22:16;;;;;;;3.40;1.47;;;;;;;7.30;87.26;96151.94;5038283;28;20209;-70
2022/02/02 07:27:48;;;;;;;4.10;1.00;;;;;;;6.79;87.78;96181.84;4996458;28;20218;-71
2022/02/02 07:30:24;;;;;;;2.43;0.70;;;;;;;6.64;88.66;96179.97;4995559;28;20207;-70
2022/02/02 07:33:05;;;;;;;1.07;0.57;;;;;;;6.68;88.53;96163.78;5018586;28;20236;-70
2022/02/02 07:35:48;;;;;;;1.07;1.07;;;;;;;6.72;89.14;96163.34;5038629;28;20250;-70
2022/02/02 07:38:16;;;;;;;1.50;0.83;;;;;;;6.61;88.32;96154.91;5037636;28;20232;-70
2022/02/02 07:40:46;;;;;;;5.97;0.63;;;;;;;6.66;87.83;96165.75;5037980;28;20201;-70
2022/02/02 07:43:20;;;;;;;1.50;0.73;;;;;;;6.79;87.76;96177.44;5037480;28;20292;-70
2022/02/02 07:45:48;;;;;;;1.33;0.80;;;;;;;6.75;88.08;96167.44;5037901;28;20584;-70
2022/02/02 07:48:16;;;;;;;5.93;1.07;;;;;;;6.72;87.93;96173.81;5037920;28;20229;-70
2022/02/02 07:50:43;;;;;;;0.50;0.50;;;;;;;6.82;86.84;96178.91;5038000;28;21297;-70
2022/02/02 07:53:12;;;;;;;7.83;1.60;;;;;;;6.57;88.29;96210.34;5035208;28;20204;-70
2022/02/02 07:55:44;;;;;;;0.37;0.37;;;;;;;6.87;87.72;96195.84;5036995;28;20205;-70
2022/02/02 07:58:16;;;;;;;2.47;0.40;;;;;;;6.75;88.43;96198.88;5037038;28;20225;-70
2022/02/02 08:00:43;;;;;;;0.57;0.57;;;;;;;6.65;88.44;96194.72;5035555;28;20233;-70
2022/02/02 08:03:12;;;;;;;1.20;0.77;;;;;;;6.70;88.68;96180.16;5036133;28;20201;-70
2022/02/02 08:05:44;;;;;;;6.77;2.60;;;;;;;7.05;87.62;96185.25;5036609;28;20216;-70
2022/02/02 08:08:25;;;;;;;8.97;2.40;;;;;;;6.92;87.40;96169.16;5036352;28;20217;-70
2022/02/02 08:10:53;;;;;;;0.50;0.50;;;;;;;6.84;88.05;96169.94;5033960;28;20585;-70
2022/02/02 08:13:23;;;;;;;1.43;0.83;;;;;;;6.88;87.19;96173.06;5036919;28;20324;-70
2022/02/02 08:15:56;;;;;;;0.73;0.73;;;;;;;6.73;87.60;96159.75;5036256;28;20760;-70
2022/02/02 08:18:23;;;;;;;0.30;0.30;;;;;;;6.84;86.73;96164.69;5036177;28;20231;-70
2022/02/02 08:20:51;;;;;;;1.40;0.63;;;;;;;6.98;86.67;96163.31;5036242;28;20256;-70
2022/02/02 08:23:17;;;;;;;2.43;0.30;;;;;;;6.86;86.61;96175.00;5035880;28;20692;-70
2022/02/02 08:25:44;;;;;;;0.50;0.50;;;;;;;7.01;85.88;96173.47;5035789;28;20213;-71
2022/02/02 08:28:11;;;;;;;2.77;1.03;;;;;;;7.21;85.05;96180.09;5035919;28;20236;-71
2022/02/02 08:30:37;;;;;;;1.00;0.83;;;;;;;7.22;85.48;96200.91;5035818;28;20205;-71
2022/02/02 08:33:07;;;;;;;2.00;0.97;;;;;;;7.35;84.91;96194.22;5035397;28;20213;-71
2022/02/02 08:35:38;;;;;;;5.67;0.87;;;;;;;7.51;84.82;96207.41;5036005;28;20211;-71
2022/02/02 08:38:12;;;;;;;11.73;2.10;;;;;;;7.44;84.60;96203.75;5036329;28;20682;-71
2022/02/02 08:40:42;;;;;;;2.73;0.97;;;;;;;7.33;84.29;96198.81;5035350;28;20232;-71
2022/02/02 08:43:13;;;;;;;1.23;0.93;;;;;;;7.41;83.55;96205.91;5034788;28;20215;-71
2022/02/02 08:45:42;;;;;;;10.93;1.13;;;;;;;7.33;84.13;96201.44;5036011;28;20231;-70
2022/02/02 08:48:13;;;;;;;0.37;0.37;;;;;;;7.46;84.35;96190.53;5035030;28;20590;-70
2022/02/02 08:50:45;;;;;;;11.70;1.70;;;;;;;7.52;83.15;96195.94;5035611;28;20210;-70
2022/02/02 08:53:29;;;;;;;4.47;1.77;;;;;;;7.77;82.37;96208.13;5034940;28;20205;-70
2022/02/02 08:56:12;;;;;;;12.37;1.40;;;;;;;7.66;81.77;96213.69;5035311;28;20235;-70
2022/02/02 08:58:42;;;;;;;8.90;0.93;;;;;;;7.72;81.69;96236.63;5035440;28;20315;-71
2022/02/02 09:01:13;;;;;;;11.00;2.30;;;;;;;7.65;80.40;96255.78;5035438;28;20204;-71
2022/02/02 09:06:24;;;;;;;7.77;1.10;;;;;;;7.69;78.85;96236.97;5035677;28;20339;-70
2022/02/02 09:09:04;;;;;;;2.10;0.87;;;;;;;7.98;78.36;96253.09;5032388;28;20236;-71
2022/02/02 09:20:09;;;;;;;1.83;1.40;;;;;;;7.89;78.15;96235.69;5035448;28;20290;-72
2022/02/02 09:25:34;;;;;;;6.47;1.37;;;;;;;8.16;77.64;96256.44;5035761;28;20673;-71
2022/02/02 09:33:52;;;;;;;7.43;1.93;;;;;;;7.97;77.39;96280.34;5034786;28;20244;-71
2022/02/02 09:36:22;;;;;;;3.53;1.03;;;;;;;8.18;78.87;96283.34;5036013;28;20212;-71
2022/02/02 09:38:50;;;;;;;2.73;1.20;;;;;;;8.06;78.18;96287.25;5035432;28;20221;-71
2022/02/02 09:41:35;;;;;;;0.80;0.47;;;;;;;8.45;78.73;96304.06;5035717;28;20212;-71
2022/02/02 09:44:04;;;;;;;8.23;3.30;;;;;;;8.34;78.21;96304.38;5034921;28;20325;-71
2022/02/02 09:46:35;;;;;;;2.37;1.10;;;;;;;8.34;78.90;96314.88;5036896;28;20205;-70
2022/02/02 09:49:06;;;;;;;1.50;1.20;;;;;;;8.34;78.84;96320.13;5041335;28;20229;-70
2022/02/02 09:51:37;;;;;;;2.67;1.10;;;;;;;8.28;79.34;96326.84;5041305;28;20574;-70
2022/02/02 09:54:10;;;;;;;4.50;0.80;;;;;;;8.48;79.12;96309.81;5040878;28;20476;-71
2022/02/02 09:57:02;;;;;;;3.33;1.40;;;;;;;8.75;78.80;96318.19;5043245;28;20197;-71
2022/02/02 09:59:46;;;;;;;1.20;0.83;;;;;;;8.39;78.38;96328.34;5039894;28;20229;-71
2022/02/02 10:02:31;;;;;;;5.97;1.83;;;;;;;8.69;78.67;96324.13;5041697;28;20205;-71
2022/02/02 10:05:10;;;;;;;4.33;1.10;;;;;;;8.65;79.05;96333.28;5040859;28;20954;-71
2022/02/02 10:16:01;;;;;;;8.13;1.13;;;;;;;8.56;79.52;96331.63;5004003;28;20655;-70
2022/02/02 10:18:30;;;;;;;12.53;1.93;;;;;;;8.41;78.77;96337.69;5041096;28;20591;-70
2022/02/02 10:20:56;;;;;;;2.07;1.27;;;;;;;8.23;79.53;96334.38;5040710;28;20658;-70
2022/02/02 10:23:26;;;;;;;4.30;2.13;;;;;;;8.41;79.87;96321.94;5042660;28;20212;-71
2022/02/02 10:25:57;;;;;;;3.17;1.40;;;;;;;8.22;79.44;96316.16;5044074;28;20201;-70
2022/02/02 10:28:29;;;;;;;2.87;1.23;;;;;;;8.30;79.26;96321.44;5043403;28;20225;-70
2022/02/02 10:31:01;;;;;;;0.70;0.70;;;;;;;8.41;79.23;96315.88;5044297;28;20723;-70
2022/02/02 10:33:30;;;;;;;0.77;0.53;;;;;;;8.36;77.88;96326.03;5043163;28;20208;-70
2022/02/02 10:36:02;;;;;;;4.83;1.27;;;;;;;8.48;78.41;96313.25;5043743;28;20211;-70
2022/02/02 10:38:42;;;;;;;1.30;0.80;;;;;;;8.44;78.01;96326.03;5043290;28;21131;-70
2022/02/02 10:41:18;;;;;;;7.63;1.10;;;;;;;8.56;78.41;96329.00;5043436;28;20224;-71
2022/02/02 10:43:52;;;;;;;1.70;0.60;;;;;;;8.59;78.33;96330.50;5042077;28;21141;-70
2022/02/02 10:46:25;;;;;;;6.03;0.70;;;;;;;8.73;79.82;96327.22;5043695;28;20283;-70
2022/02/02 10:48:59;;;;;;;10.33;1.93;;;;;;;8.98;78.31;96319.19;5043998;28;20233;-71
2022/02/02 10:51:35;;;;;;;1.27;1.20;;;;;;;8.90;78.30;96328.91;5044048;28;20320;-71
2022/02/02 10:54:16;;;;;;;2.60;1.63;;;;;;;8.91;78.34;96331.34;5041546;28;20212;-70
2022/02/02 10:56:48;;;;;;;1.60;1.50;;;;;;;9.09;77.73;96332.81;5040674;28;20209;-71
2022/02/02 10:59:31;;;;;;;4.70;1.37;;;;;;;9.13;77.96;96325.44;5041974;28;20605;-71
2022/02/02 11:07:26;;;;;;;2.47;1.50;;;;;;;8.88;74.50;96329.03;5039216;28;20216;-70
2022/02/02 11:09:54;;;;;;;2.40;1.10;;;;;;;8.86;77.33;96323.13;5037353;28;20587;-71
2022/02/02 11:12:28;;;;;;;5.43;1.10;;;;;;;8.87;75.12;96318.69;5039763;28;20216;-70
2022/02/02 11:15:05;;;;;;;2.97;1.67;;;;;;;8.92;74.74;96340.84;5039803;28;20204;-71
2022/02/02 11:17:38;;;;;;;3.33;1.40;;;;;;;8.84;74.84;96317.22;5040462;28;20205;-71
2022/02/02 11:20:07;;;;;;;9.53;1.00;;;;;;;8.72;72.44;96326.41;5041013;28;20229;-70
2022/02/02 11:22:47;;;;;;;3.33;1.17;;;;;;;8.96;72.99;96326.44;5039165;28;20216;-70
2022/02/02 11:25:41;;;;;;;2.93;0.80;;;;;;;9.12;71.71;96331.66;5040052;28;20197;-70
2022/02/02 11:28:23;;;;;;;2.70;0.90;;;;;;;9.13;71.04;96326.22;4998761;28;20217;-71
2022/02/02 11:30:51;;;;;;;2.80;1.07;;;;;;;8.98;70.78;96323.63;5040078;28;21072;-71
2022/02/02 11:33:25;;;;;;;12.33;2.17;;;;;;;9.27;70.99;96330.00;5039067;28;20569;-71
2022/02/02 11:35:56;;;;;;;0.53;0.50;;;;;;;8.94;70.76;96335.47;5040215;28;20197;-71
2022/02/02 11:38:40;;;;;;;1.97;0.70;;;;;;;9.23;71.61;96326.06;5039732;28;20636;-71
2022/02/02 11:44:07;;;;;;;8.10;1.43;;;;;;;9.11;71.45;96316.88;5038391;28;20205;-71
2022/02/02 11:46:52;;;;;;;2.93;1.20;;;;;;;9.32;71.85;96304.84;5042708;28;20208;-71
2022/02/02 11:49:29;;;;;;;6.10;1.40;;;;;;;9.26;68.11;96341.50;5045299;28;20247;-70
2022/02/02 11:52:01;;;;;;;3.37;2.10;;;;;;;9.04;69.22;96331.69;5041675;28;20209;-70
2022/02/02 11:54:49;;;;;;;3.23;2.00;;;;;;;9.31;69.82;96320.78;5038592;28;20205;-71
2022/02/02 11:57:25;;;;;;;5.10;2.20;;;;;;;9.12;69.64;96329.03;5039195;28;20549;-70
2022/02/02 12:00:00;;;;;;;3.93;1.30;;;;;;;9.14;69.90;96329.69;5039804;28;20872;-70
2022/02/02 12:02:51;;;;;;;1.33;0.60;;;;;;;9.23;69.54;96332.13;5038551;28;20236;-70
2022/02/02 12:05:34;;;;;;;2.37;0.80;;;;;;;9.32;70.13;96327.72;5037298;28;20208;-70
2022/02/02 12:08:10;;;;;;;1.40;1.30;;;;;;;9.10;71.11;96336.28;5038837;28;20227;-71
2022/02/02 12:10:51;;;;;;;4.57;0.97;;;;;;;9.13;71.41;96333.31;5036103;28;20204;-70
2022/02/02 12:19:49;;;;;;;4.00;0.83;;;;;;;9.02;73.99;96343.34;5038488;28;20740;-71
2022/02/02 12:45:07;;;;;;;1.33;0.70;;;;;;;8.82;73.17;96357.78;5035786;28;20212;-70
2022/02/02 12:47:46;;;;;;;2.50;0.87;;;;;;;9.10;72.74;96359.94;5037145;28;20240;-70
2022/02/02 12:50:29;;;;;;;1.47;0.77;;;;;;;9.34;72.87;96346.75;5037100;28;20198;-71
2022/02/02 12:58:34;;;;;;;2.70;0.77;;;;;;;9.49;71.00;96382.72;5026180;28;20229;-71
2022/02/02 13:01:09;;;;;;;3.80;1.13;;;;;;;9.93;72.46;96374.22;5037600;28;20313;-71
2022/02/02 13:03:38;;;;;;;2.87;0.80;;;;;;;9.81;71.41;96394.03;5037248;28;20270;-71
2022/02/02 13:06:11;;;;;;;1.67;1.10;;;;;;;9.59;72.29;96380.75;5038995;28;20201;-71
2022/02/02 13:08:39;;;;;;;2.63;0.73;;;;;;;9.79;70.92;96382.81;5035744;28;20240;-71
2022/02/02 13:11:05;;;;;;;3.13;1.23;;;;;;;9.30;69.73;96384.88;5037042;28;20754;-71
2022/02/02 13:13:32;;;;;;;8.13;1.10;;;;;;;9.30;70.80;96384.88;5035888;28;20636;-71
2022/02/02 13:16:03;;;;;;;11.63;2.03;;;;;;;9.20;71.94;96394.75;5036099;28;20227;-71
2022/02/02 13:18:35;;;;;;;2.37;1.20;;;;;;;9.16;70.70;96396.06;5036293;28;20221;-71
2022/02/02 13:21:07;;;;;;;3.40;1.07;;;;;;;9.51;71.12;96403.59;5036472;28;20757;-71
2022/02/02 13:23:43;;;;;;;2.20;0.93;;;;;;;9.68;71.14;96393.69;5035779;28;21053;-71
2022/02/02 13:26:17;;;;;;;2.83;0.87;;;;;;;9.62;70.53;96400.63;5035908;28;20303;-72
2022/02/02 13:28:56;;;;;;;1.07;0.80;;;;;;;9.62;70.76;96404.06;5035397;28;20316;-72
2022/02/02 13:31:34;;;;;;;0.90;0.63;;;;;;;9.31;70.79;96405.75;5036337;28;20201;-71
2022/02/02 13:34:13;;;;;;;2.20;1.03;;;;;;;9.45;71.20;96417.44;5035201;28;20654;-72
2022/02/02 13:36:55;;;;;;;0.70;0.70;;;;;;;9.19;71.57;96425.47;5036458;28;20220;-71
2022/02/02 13:42:51;;;;;;;6.60;0.83;;;;;;;9.35;71.95;96440.44;5035799;28;20232;-71
2022/02/02 13:51:28;;;;;;;2.60;0.67;;;;;;;8.96;70.33;96449.94;5011679;28;20216;-71
2022/02/02 13:57:06;;;;;;;2.47;0.50;;;;;;;8.85;70.70;96449.44;5027327;28;20205;-71
2022/02/02 14:00:21;;;;;;;4.63;0.70;;;;;;;9.36;70.41;96431.56;5039786;28;20252;-71
2022/02/02 14:33:24;;;;;;;1.30;0.93;;;;;;;8.69;76.39;96507.19;5013398;28;20590;-70
2022/02/02 14:35:55;;;;;;;0.90;0.70;;;;;;;8.58;76.70;96520.63;5038749;28;20205;-70
2022/02/02 14:38:21;;;;;;;19.73;2.13;;;;;;;8.61;76.23;96531.59;5038616;28;20368;-71
2022/02/02 14:41:00;;;;;;;0.67;0.60;;;;;;;8.61;76.96;96523.72;5038529;28;20883;-70
2022/02/02 14:43:32;;;;;;;1.70;0.63;;;;;;;8.80;76.62;96536.59;5038492;28;20205;-70
2022/02/02 14:46:01;;;;;;;1.70;1.23;;;;;;;8.55;78.16;96531.41;5039126;28;20211;-70
2022/02/02 14:48:33;;;;;;;1.47;1.27;;;;;;;8.63;78.37;96544.56;5038673;28;20229;-70
2022/02/02 14:51:06;;;;;;;1.50;1.00;;;;;;;8.43;78.93;96545.81;5038968;28;20217;-70
2022/02/02 14:53:40;;;;;;;1.00;0.60;;;;;;;8.53;79.67;96543.91;5037734;28;20209;-70
2022/02/02 14:56:31;;;;;;;5.87;1.57;;;;;;;8.47;78.51;96554.22;5038679;28;20630;-71
2022/02/02 15:24:14;;;;;;;1.13;0.90;;;;;;;8.21;79.15;96566.50;5037052;28;20223;-70
2022/02/02 15:29:38;;;;;;;2.17;0.77;;;;;;;8.17;79.62;96573.03;5027116;28;20256;-70
2022/02/02 15:32:06;;;;;;;0.90;0.73;;;;;;;8.11;80.42;96577.09;5037973;28;20200;-71
2022/02/02 15:34:37;;;;;;;2.63;0.97;;;;;;;7.86;81.25;96577.88;5036103;28;20323;-70
2022/02/02 15:37:22;;;;;;;2.53;1.10;;;;;;;8.15;80.42;96588.13;5037914;28;20209;-70
2022/02/02 15:39:57;;;;;;;2.63;0.80;;;;;;;8.08;80.65;96587.06;5037804;28;20205;-70
2022/02/02 15:42:37;;;;;;;5.17;1.27;;;;;;;8.09;81.00;96592.16;5037487;28;20224;-70
2022/02/02 15:59:00;;;;;;;4.80;2.27;;;;;;;7.53;83.89;96630.19;5037347;28;20308;-71
2022/02/02 16:04:13;;;;;;;6.03;1.70;;;;;;;7.64;84.23;96627.38;5036785;28;20247;-70
2022/02/02 16:06:41;;;;;;;9.13;2.30;;;;;;;7.64;85.06;96613.44;5037538;28;20228;-70
2022/02/02 16:09:21;;;;;;;2.33;1.33;;;;;;;7.60;85.23;96625.19;5034032;28;20217;-70
2022/02/02 16:12:03;;;;;;;3.57;1.57;;;;;;;7.43;85.83;96626.84;5037349;28;20280;-70
2022/02/02 16:14:33;;;;;;;0.93;0.80;;;;;;;7.52;84.98;96625.94;5037157;28;20211;-70
2022/02/02 16:17:14;;;;;;;1.13;0.97;;;;;;;7.35;86.08;96629.34;5037225;28;20201;-70
2022/02/02 16:24:42;;;;;;;6.23;1.60;;;;;;;7.44;85.91;96619.78;5037387;28;20233;-70
2022/02/02 16:25:30;;;;;;;11.23;2.17;;;;;;;7.47;86.50;96628.19;5036586;28;20228;-70
2022/02/02 16:36:14;;;;;;;5.73;1.77;;;;;;;7.30;86.33;96631.59;5036966;28;20216;-71
2022/02/02 16:38:55;;;;;;;3.13;2.03;;;;;;;7.14;87.56;96635.00;5036563;28;20255;-70
2022/02/02 16:44:07;;;;;;;4.47;2.33;;;;;;;7.04;87.19;96650.81;5036176;28;20295;-70
2022/02/02 16:46:33;;;;;;;5.90;2.67;;;;;;;7.20;86.97;96644.91;5037432;28;20205;-71
2022/02/02 16:49:00;;;;;;;21.30;2.33;;;;;;;7.03;87.18;96638.66;5036503;28;20264;-70
2022/02/02 16:51:26;;;;;;;5.80;2.77;;;;;;;6.99;87.27;96631.25;5036292;28;20197;-70
2022/02/02 16:53:57;;;;;;;4.83;1.90;;;;;;;6.95;87.59;96630.72;5036094;28;20212;-70
2022/02/02 16:56:34;;;;;;;2.20;1.40;;;;;;;7.08;87.39;96641.66;5036797;28;20201;-71
2022/02/02 17:32:06;;;;;;;10.90;2.23;;;;;;;6.62;87.93;96680.19;5033699;28;20227;-70
2022/02/02 17:34:39;;;;;;;10.32;2.03;;;;;;;6.48;88.97;96678.03;5038762;28;20559;-69
2022/02/02 17:37:20;;;;;;;2.53;1.50;;;;;;;6.60;87.98;96684.75;5040384;28;20211;-70
2022/02/02 17:39:57;;;;;;;6.20;1.30;;;;;;;6.57;88.61;96681.56;5039668;28;20965;-69
2022/02/02 17:42:54;;;;;;;2.20;1.80;;;;;;;6.58;88.18;96694.53;5039008;28;20546;-69
2022/02/02 17:45:42;;;;;;;7.37;1.40;;;;;;;6.78;88.01;96696.97;5038796;28;20592;-69
2022/02/02 17:57:02;;;;;;;1.90;1.43;;;;;;;6.66;89.11;96715.59;5039549;28;20308;-69
2022/02/02 18:14:12;;;;;;;2.33;1.03;;;;;;;6.86;87.86;96738.13;5038452;28;20656;-69
2022/02/02 18:19:23;;;;;;;1.20;1.10;;;;;;;7.03;87.97;96743.47;5038443;28;20287;-70
2022/02/02 18:21:50;;;;;;;7.70;1.27;;;;;;;6.81;88.68;96759.53;5038821;28;20221;-70
2022/02/02 18:24:22;;;;;;;2.57;1.37;;;;;;;6.84;88.66;96761.84;5038377;28;20236;-70
2022/02/02 18:26:54;;;;;;;5.27;1.63;;;;;;;6.79;88.24;96760.63;5038943;28;20216;-71